Wetterdaten: Woche 17.01.05 - 23.01.05 (KW3)
Datum Zeit Temperatur Luftfeuchte Luftdruck Niederschlag Wind Richtung Sonne Solar Taupunkt Windchill
17.01.2005 00:00 -2.5 C 88 % 1030.4 hPa 0.0 l/m 2.5 km/h (1 Bft) O-SO 0.00 h 0 W/m -4.3 C -3.3 C
17.01.2005 01:00 -2.5 C 89 % 1030.4 hPa 0.0 l/m 5.4 km/h (1 Bft) SO 0.00 h 0 W/m -4.1 C -4.3 C
17.01.2005 02:00 -2.6 C 89 % 1030.4 hPa 0.0 l/m 3.2 km/h (1 Bft) SO 0.00 h 0 W/m -4.2 C -3.4 C
17.01.2005 03:00 -2.6 C 89 % 1029.9 hPa 0.0 l/m 3.2 km/h (1 Bft) O-SO 0.00 h 0 W/m -4.2 C -3.5 C
17.01.2005 04:00 -2.8 C 89 % 1029.4 hPa 0.0 l/m 8.6 km/h (2 Bft) O-SO 0.00 h 0 W/m -4.4 C -6.1 C
17.01.2005 05:00 -2.9 C 90 % 1029.4 hPa 0.0 l/m 8.0 km/h (2 Bft) O-SO 0.00 h 0 W/m -4.3 C -5.9 C
17.01.2005 06:00 -3.0 C 90 % 1029.4 hPa 0.0 l/m 6.5 km/h (2 Bft) O-SO 0.00 h 0 W/m -4.4 C -5.5 C
17.01.2005 07:00 -3.0 C 90 % 1029.4 hPa 0.0 l/m 3.4 km/h (1 Bft) SO 0.00 h 0 W/m -4.4 C -4.3 C
17.01.2005 08:00 -3.0 C 89 % 1029.4 hPa 0.0 l/m 4.4 km/h (1 Bft) O-SO 0.00 h 9 W/m -4.6 C -4.4 C
17.01.2005 09:00 -2.7 C 88 % 1029.4 hPa 0.0 l/m 4.9 km/h (1 Bft) O-SO 0.00 h 33 W/m -4.5 C -4.5 C
17.01.2005 10:00 -2.3 C 86 % 1029.3 hPa 0.0 l/m 7.9 km/h (2 Bft) SO 0.00 h 68 W/m -4.3 C -5.3 C
17.01.2005 11:00 -1.6 C 83 % 1028.6 hPa 0.0 l/m 6.8 km/h (2 Bft) O-SO 0.00 h 105 W/m -4.0 C -4.0 C
17.01.2005 12:00 -0.8 C 81 % 1027.7 hPa 0.0 l/m 6.2 km/h (2 Bft) O-SO 0.00 h 144 W/m -3.7 C -2.9 C
17.01.2005 13:00 0.2 C 77 % 1026.6 hPa 0.0 l/m 5.6 km/h (1 Bft) O-SO 0.30 h 217 W/m -3.3 C -1.5 C
17.01.2005 14:00 1.2 C 72 % 1025.7 hPa 0.0 l/m 1.9 km/h (1 Bft) O-SO 1.00 h 285 W/m -3.3 C 0.8 C
17.01.2005 15:00 1.0 C 74 % 1024.7 hPa 0.0 l/m 2.5 km/h (1 Bft) W 1.00 h 178 W/m -3.2 C 0.4 C
17.01.2005 16:00 -0.8 C 81 % 1024.9 hPa 0.0 l/m 1.5 km/h (1 Bft) W-NW 0.40 h 49 W/m -3.6 C -1.1 C
17.01.2005 17:00 -2.7 C 87 % 1024.5 hPa 0.0 l/m 0.0 km/h (0 Bft) N 0.00 h 0 W/m -4.6 C -2.7 C
17.01.2005 18:00 -2.9 C 91 % 1024.3 hPa 0.0 l/m 0.2 km/h (0 Bft) SO 0.00 h 0 W/m -4.1 C -2.9 C
17.01.2005 19:00 -3.2 C 93 % 1024.3 hPa 0.0 l/m 0.1 km/h (0 Bft) N 0.00 h 0 W/m -4.2 C -3.2 C
17.01.2005 20:00 -3.3 C 94 % 1023.9 hPa 0.0 l/m 0.6 km/h (0 Bft) O-SO 0.00 h 0 W/m -4.2 C -3.4 C
17.01.2005 21:00 -2.3 C 96 % 1023.1 hPa 0.0 l/m 2.8 km/h (1 Bft) SO 0.00 h 0 W/m -2.9 C -3.2 C
17.01.2005 22:00 -2.1 C 97 % 1022.3 hPa 0.0 l/m 0.6 km/h (0 Bft) O 0.00 h 0 W/m -2.6 C -2.1 C
17.01.2005 23:00 -2.2 C 95 % 1021.5 hPa 0.0 l/m 3.0 km/h (1 Bft) O-SO 0.00 h 0 W/m -2.8 C -3.2 C
18.01.2005 00:00 -2.0 C 96 % 1020.0 hPa 0.0 l/m 3.2 km/h (1 Bft) O-SO 0.00 h 0 W/m -2.6 C -2.6 C
18.01.2005 01:00 -1.5 C 95 % 1019.0 hPa 0.0 l/m 4.5 km/h (1 Bft) O-SO 0.00 h 0 W/m -2.3 C -3.0 C
18.01.2005 02:00 -1.4 C 94 % 1017.8 hPa 0.0 l/m 5.8 km/h (2 Bft) O-SO 0.00 h 0 W/m -2.2 C -3.4 C
18.01.2005 03:00 -1.3 C 90 % 1017.0 hPa 0.0 l/m 3.8 km/h (1 Bft) SO 0.00 h 0 W/m -2.8 C -2.6 C
18.01.2005 04:00 -1.2 C 89 % 1015.6 hPa 0.0 l/m 1.6 km/h (1 Bft) O-SO 0.00 h 0 W/m -2.8 C -1.7 C
18.01.2005 05:00 -0.8 C 90 % 1014.1 hPa 0.0 l/m 3.0 km/h (1 Bft) O-SO 0.00 h 0 W/m -2.2 C -1.7 C
18.01.2005 06:00 -0.5 C 88 % 1012.4 hPa 0.0 l/m 0.6 km/h (0 Bft) O-SO 0.00 h 0 W/m -2.2 C -0.7 C
18.01.2005 07:00 -0.6 C 89 % 1010.9 hPa 0.0 l/m 0.8 km/h (0 Bft) O 0.00 h 0 W/m -2.2 C -0.8 C
18.01.2005 08:00 -1.0 C 91 % 1009.6 hPa 0.0 l/m 0.0 km/h (0 Bft) N 0.00 h 14 W/m -2.3 C -1.0 C
18.01.2005 09:00 -0.9 C 92 % 1008.5 hPa 0.0 l/m 1.5 km/h (1 Bft) W-NW 0.00 h 21 W/m -2.1 C -1.2 C
18.01.2005 10:00 -0.4 C 94 % 1007.4 hPa 1.8 l/m 0.0 km/h (0 Bft) N 0.00 h 27 W/m -1.2 C -0.4 C
18.01.2005 11:00 1.4 C 98 % 1005.4 hPa 0.0 l/m 6.2 km/h (2 Bft) NO 0.00 h 38 W/m 1.1 C 0.1 C
18.01.2005 12:00 4.2 C 94 % 1003.4 hPa 0.0 l/m 21.6 km/h (4 Bft) SO 0.00 h 47 W/m 3.3 C -0.1 C
18.01.2005 13:00 4.4 C 90 % 1001.2 hPa 0.3 l/m 17.2 km/h (3 Bft) SO 0.00 h 28 W/m 2.9 C 0.8 C
18.01.2005 14:00 4.2 C 92 % 1000.3 hPa 2.1 l/m 6.0 km/h (2 Bft) W-NW 0.00 h 26 W/m 3.1 C 3.0 C
18.01.2005 15:00 4.2 C 94 % 999.3 hPa 2.1 l/m 21.4 km/h (4 Bft) W-NW 0.00 h 10 W/m 3.3 C 0.4 C
18.01.2005 16:00 3.8 C 96 % 999.6 hPa 1.5 l/m 23.4 km/h (4 Bft) W-NW 0.00 h 7 W/m 3.2 C 0.2 C
18.01.2005 17:00 2.6 C 95 % 1002.1 hPa 0.3 l/m 39.8 km/h (6 Bft) W-NW 0.00 h 3 W/m 1.8 C -3.8 C
18.01.2005 18:00 2.0 C 96 % 1005.3 hPa 0.0 l/m 29.7 km/h (5 Bft) W-NW 0.00 h 0 W/m 1.4 C -3.7 C
18.01.2005 19:00 1.7 C 96 % 1007.1 hPa 0.3 l/m 33.0 km/h (5 Bft) W-NW 0.00 h 0 W/m 1.2 C -4.5 C
18.01.2005 20:00 1.1 C 96 % 1008.9 hPa 0.3 l/m 29.2 km/h (5 Bft) W-NW 0.00 h 0 W/m 0.5 C -4.9 C
18.01.2005 21:00 0.7 C 97 % 1010.4 hPa 0.3 l/m 27.0 km/h (4 Bft) W-NW 0.00 h 0 W/m 0.3 C -5.1 C
18.01.2005 22:00 1.1 C 90 % 1011.1 hPa 0.0 l/m 29.8 km/h (5 Bft) W-NW 0.00 h 0 W/m -0.4 C -5.0 C
18.01.2005 23:00 0.4 C 86 % 1011.2 hPa 0.0 l/m 16.3 km/h (3 Bft) W-NW 0.00 h 0 W/m -1.7 C -3.4 C
19.01.2005 00:00 0.2 C 86 % 1011.3 hPa 0.0 l/m 2.2 km/h (1 Bft) SO 0.00 h 0 W/m -1.9 C -0.4 C
19.01.2005 01:00 0.2 C 83 % 1010.9 hPa 0.0 l/m 3.2 km/h (1 Bft) SO 0.00 h 0 W/m -2.4 C -0.5 C
19.01.2005 02:00 0.2 C 83 % 1010.7 hPa 0.0 l/m 2.3 km/h (1 Bft) W 0.00 h 0 W/m -2.2 C -0.1 C
19.01.2005 03:00 0.3 C 83 % 1011.3 hPa 0.0 l/m 3.1 km/h (1 Bft) SO 0.00 h 0 W/m -2.2 C -0.3 C
19.01.2005 04:00 0.4 C 83 % 1011.2 hPa 0.0 l/m 7.4 km/h (2 Bft) S-SO 0.00 h 0 W/m -2.2 C -1.6 C
19.01.2005 05:00 0.1 C 85 % 1011.9 hPa 0.3 l/m 1.2 km/h (1 Bft) NO 0.00 h 0 W/m -2.1 C -0.2 C
19.01.2005 06:00 -0.2 C 93 % 1012.4 hPa 0.0 l/m 4.7 km/h (1 Bft) SO 0.00 h 0 W/m -1.1 C -1.4 C
19.01.2005 07:00 0.0 C 94 % 1013.4 hPa 0.0 l/m 5.2 km/h (1 Bft) SO 0.00 h 0 W/m -0.9 C -1.3 C
19.01.2005 08:00 0.0 C 94 % 1014.3 hPa 0.3 l/m 6.5 km/h (2 Bft) SO 0.00 h 7 W/m -0.8 C -1.8 C
19.01.2005 09:00 0.3 C 94 % 1015.3 hPa 0.0 l/m 6.1 km/h (2 Bft) SO 0.00 h 17 W/m -0.5 C -1.5 C
19.01.2005 10:00 0.3 C 93 % 1015.8 hPa 0.3 l/m 6.2 km/h (2 Bft) SO 0.00 h 33 W/m -0.6 C -1.4 C
19.01.2005 11:00 0.8 C 94 % 1016.4 hPa 0.0 l/m 9.1 km/h (2 Bft) O-SO 0.00 h 86 W/m 0.0 C -1.8 C
19.01.2005 12:00 1.6 C 89 % 1016.3 hPa 0.0 l/m 8.3 km/h (2 Bft) SO 0.00 h 137 W/m -0.0 C -0.6 C
19.01.2005 13:00 1.7 C 87 % 1016.3 hPa 0.6 l/m 7.2 km/h (2 Bft) SO 0.13 h 126 W/m -0.2 C -0.1 C
19.01.2005 14:00 2.4 C 89 % 1016.5 hPa 0.0 l/m 5.2 km/h (1 Bft) SO 0.53 h 228 W/m 0.7 C 1.2 C
19.01.2005 15:00 2.6 C 87 % 1017.2 hPa 0.0 l/m 2.5 km/h (1 Bft) O-SO 0.00 h 86 W/m 0.7 C 2.2 C
19.01.2005 16:00 2.2 C 91 % 1018.0 hPa 0.0 l/m 4.6 km/h (1 Bft) SO 0.17 h 24 W/m 0.8 C 1.1 C
19.01.2005 17:00 1.4 C 92 % 1018.6 hPa 0.0 l/m 4.4 km/h (1 Bft) SO 0.00 h 4 W/m 0.3 C 0.3 C
19.01.2005 18:00 0.2 C 95 % 1019.6 hPa 0.0 l/m 2.0 km/h (1 Bft) O-SO 0.00 h 0 W/m -0.5 C -0.3 C
19.01.2005 19:00 0.1 C 98 % 1020.1 hPa 0.0 l/m 0.9 km/h (0 Bft) O-SO 0.00 h 0 W/m -0.3 C -0.2 C
19.01.2005 20:00 0.4 C 97 % 1020.6 hPa 0.0 l/m 3.2 km/h (1 Bft) O-SO 0.00 h 0 W/m -0.1 C -0.3 C
19.01.2005 21:00 0.5 C 99 % 1021.0 hPa 0.0 l/m 6.0 km/h (2 Bft) O-SO 0.00 h 0 W/m 0.3 C -1.4 C
19.01.2005 22:00 0.8 C 97 % 1021.2 hPa 0.0 l/m 5.5 km/h (1 Bft) O-SO 0.00 h 0 W/m 0.5 C -0.8 C
19.01.2005 23:00 0.8 C 97 % 1021.6 hPa 0.0 l/m 2.4 km/h (1 Bft) SO 0.00 h 0 W/m 0.4 C 0.3 C
20.01.2005 00:00 1.1 C 96 % 1021.5 hPa 0.0 l/m 4.0 km/h (1 Bft) SO 0.00 h 0 W/m 0.5 C 0.1 C
20.01.2005 01:00 1.2 C 93 % 1020.8 hPa 0.0 l/m 4.9 km/h (1 Bft) SO 0.00 h 0 W/m 0.1 C -0.1 C
20.01.2005 02:00 1.2 C 91 % 1020.4 hPa 0.0 l/m 3.0 km/h (1 Bft) W 0.00 h 0 W/m -0.1 C 0.4 C
20.01.2005 03:00 1.4 C 89 % 1019.4 hPa 0.0 l/m 7.3 km/h (2 Bft) S 0.00 h 0 W/m -0.1 C -0.5 C
20.01.2005 04:00 1.7 C 86 % 1019.2 hPa 0.0 l/m 4.0 km/h (1 Bft) SO 0.00 h 0 W/m -0.5 C 0.7 C
20.01.2005 05:00 2.3 C 80 % 1018.4 hPa 0.0 l/m 6.6 km/h (2 Bft) SO 0.00 h 0 W/m -0.9 C 0.7 C
20.01.2005 06:00 2.2 C 80 % 1018.3 hPa 0.0 l/m 3.5 km/h (1 Bft) S-SW 0.00 h 0 W/m -0.8 C 1.5 C
20.01.2005 07:00 2.0 C 84 % 1018.3 hPa 0.0 l/m 0.6 km/h (0 Bft) SW 0.00 h 0 W/m -0.3 C 2.0 C
20.01.2005 08:00 2.3 C 90 % 1018.3 hPa 0.0 l/m 7.9 km/h (2 Bft) S-SW 0.00 h 5 W/m 0.8 C 0.4 C
20.01.2005 09:00 3.0 C 83 % 1018.2 hPa 0.0 l/m 13.5 km/h (3 Bft) S 0.00 h 18 W/m 0.4 C -0.3 C
20.01.2005 10:00 3.3 C 81 % 1018.1 hPa 0.0 l/m 13.9 km/h (3 Bft) S 0.00 h 19 W/m 0.4 C 0.0 C
20.01.2005 11:00 3.1 C 87 % 1018.1 hPa 0.6 l/m 11.6 km/h (2 Bft) S-SO 0.00 h 32 W/m 1.2 C 0.5 C
20.01.2005 12:00 3.3 C 92 % 1018.1 hPa 0.0 l/m 14.7 km/h (3 Bft) S-SO 0.00 h 66 W/m 2.1 C -0.2 C
20.01.2005 13:00 4.1 C 89 % 1017.4 hPa 0.3 l/m 11.4 km/h (2 Bft) S-SO 0.00 h 76 W/m 2.4 C 1.4 C
20.01.2005 14:00 4.7 C 88 % 1016.3 hPa 0.0 l/m 15.1 km/h (3 Bft) S 0.00 h 30 W/m 2.9 C 1.5 C
20.01.2005 15:00 5.7 C 86 % 1015.2 hPa 0.0 l/m 15.5 km/h (3 Bft) S-SW 0.00 h 18 W/m 3.6 C 2.7 C
20.01.2005 16:00 6.3 C 85 % 1014.6 hPa 0.0 l/m 13.1 km/h (3 Bft) S 0.00 h 3 W/m 3.9 C 3.7 C
20.01.2005 17:00 6.5 C 87 % 1014.5 hPa 0.3 l/m 16.2 km/h (3 Bft) S-SW 0.00 h 1 W/m 4.4 C 3.5 C
20.01.2005 18:00 6.6 C 93 % 1014.4 hPa 0.0 l/m 15.1 km/h (3 Bft) W-SW 0.00 h 0 W/m 5.6 C 3.8 C
20.01.2005 19:00 7.3 C 88 % 1013.4 hPa 0.0 l/m 14.8 km/h (3 Bft) W 0.00 h 0 W/m 5.4 C 4.7 C
20.01.2005 20:00 8.3 C 80 % 1013.2 hPa 0.0 l/m 28.5 km/h (4 Bft) W-NW 0.00 h 0 W/m 5.2 C 4.6 C
20.01.2005 21:00 8.0 C 85 % 1013.3 hPa 0.6 l/m 27.4 km/h (4 Bft) W 0.00 h 0 W/m 5.6 C 4.3 C
20.01.2005 22:00 7.3 C 92 % 1012.5 hPa 0.0 l/m 18.3 km/h (3 Bft) W 0.00 h 0 W/m 6.1 C 4.2 C
20.01.2005 23:00 7.3 C 89 % 1012.3 hPa 0.0 l/m 21.7 km/h (4 Bft) W 0.00 h 0 W/m 5.6 C 3.9 C
21.01.2005 00:00 7.5 C 88 % 1011.3 hPa 0.3 l/m 27.6 km/h (4 Bft) W 0.00 h 0 W/m 5.6 C 3.6 C
21.01.2005 01:00 8.1 C 84 % 1010.2 hPa 0.0 l/m 33.8 km/h (5 Bft) W-NW 0.00 h 0 W/m 5.5 C 3.8 C
21.01.2005 02:00 8.1 C 82 % 1009.7 hPa 1.2 l/m 40.2 km/h (6 Bft) W-NW 0.00 h 0 W/m 5.2 C 3.4 C
21.01.2005 03:00 7.3 C 93 % 1010.2 hPa 1.5 l/m 46.9 km/h (6 Bft) W-NW 0.00 h 0 W/m 6.3 C 2.1 C
21.01.2005 04:00 7.5 C 88 % 1009.4 hPa 0.0 l/m 42.3 km/h (6 Bft) W-NW 0.00 h 0 W/m 5.6 C 2.5 C
21.01.2005 05:00 8.0 C 82 % 1009.0 hPa 0.0 l/m 45.5 km/h (6 Bft) W-NW 0.00 h 0 W/m 5.2 C 3.1 C
21.01.2005 06:00 8.2 C 80 % 1008.1 hPa 0.3 l/m 52.6 km/h (7 Bft) W-NW 0.00 h 0 W/m 5.0 C 3.0 C
21.01.2005 07:00 8.2 C 82 % 1008.1 hPa 0.3 l/m 43.9 km/h (6 Bft) W-NW 0.00 h 0 W/m 5.2 C 3.3 C
21.01.2005 08:00 8.0 C 86 % 1008.5 hPa 1.8 l/m 51.9 km/h (7 Bft) W-NW 0.00 h 6 W/m 5.7 C 2.7 C
21.01.2005 09:00 6.6 C 93 % 1010.3 hPa 1.5 l/m 31.7 km/h (5 Bft) NW 0.00 h 37 W/m 5.5 C 2.1 C
21.01.2005 10:00 5.8 C 85 % 1011.3 hPa 0.0 l/m 28.9 km/h (5 Bft) W-NW 0.00 h 108 W/m 3.4 C 1.2 C
21.01.2005 11:00 5.8 C 77 % 1012.3 hPa 0.0 l/m 29.1 km/h (5 Bft) W-NW 0.03 h 155 W/m 2.2 C 1.2 C
21.01.2005 12:00 6.0 C 73 % 1012.5 hPa 0.0 l/m 34.1 km/h (5 Bft) W-NW 0.30 h 239 W/m 1.6 C 1.1 C
21.01.2005 13:00 6.1 C 76 % 1012.5 hPa 0.0 l/m 28.4 km/h (4 Bft) W-NW 0.13 h 160 W/m 2.3 C 1.7 C
21.01.2005 14:00 6.0 C 73 % 1013.3 hPa 0.0 l/m 31.5 km/h (5 Bft) W-NW 0.00 h 90 W/m 1.5 C 1.3 C
21.01.2005 15:00 5.5 C 72 % 1013.6 hPa 0.0 l/m 35.1 km/h (5 Bft) W-NW 0.00 h 68 W/m 0.8 C 0.3 C
21.01.2005 16:00 5.1 C 75 % 1014.6 hPa 0.0 l/m 28.6 km/h (4 Bft) W-NW 0.00 h 20 W/m 1.1 C 0.4 C
21.01.2005 17:00 4.9 C 76 % 1014.8 hPa 0.0 l/m 24.5 km/h (4 Bft) W-NW 0.00 h 5 W/m 1.0 C 0.4 C
21.01.2005 18:00 4.7 C 73 % 1014.9 hPa 0.0 l/m 24.7 km/h (4 Bft) W-NW 0.00 h 0 W/m 0.3 C 0.2 C
21.01.2005 19:00 4.5 C 72 % 1015.9 hPa 0.0 l/m 19.1 km/h (3 Bft) W-NW 0.00 h 0 W/m -0.1 C 0.6 C
21.01.2005 20:00 4.7 C 67 % 1015.8 hPa 0.0 l/m 18.9 km/h (3 Bft) W-NW 0.00 h 0 W/m -0.9 C 0.9 C
21.01.2005 21:00 4.6 C 67 % 1015.8 hPa 0.0 l/m 25.0 km/h (4 Bft) W-NW 0.00 h 0 W/m -1.0 C 0.1 C
21.01.2005 22:00 4.3 C 73 % 1015.9 hPa 0.0 l/m 30.1 km/h (5 Bft) W-NW 0.00 h 0 W/m -0.2 C -0.8 C
21.01.2005 23:00 4.1 C 75 % 1015.7 hPa 0.0 l/m 23.0 km/h (4 Bft) W-NW 0.00 h 0 W/m 0.0 C -0.4 C
22.01.2005 00:00 3.9 C 75 % 1015.6 hPa 0.0 l/m 22.5 km/h (4 Bft) W-NW 0.00 h 0 W/m -0.0 C -0.6 C
22.01.2005 01:00 3.6 C 76 % 1015.2 hPa 0.0 l/m 19.9 km/h (4 Bft) W-NW 0.00 h 0 W/m -0.3 C -0.5 C
22.01.2005 02:00 3.4 C 74 % 1016.0 hPa 0.0 l/m 18.4 km/h (3 Bft) W-NW 0.00 h 0 W/m -0.8 C -0.6 C
22.01.2005 03:00 3.5 C 72 % 1016.0 hPa 0.0 l/m 20.3 km/h (4 Bft) W-NW 0.00 h 0 W/m -1.2 C -0.9 C
22.01.2005 04:00 3.2 C 71 % 1016.0 hPa 0.0 l/m 22.8 km/h (4 Bft) W-NW 0.00 h 0 W/m -1.6 C -1.5 C
22.01.2005 05:00 2.9 C 75 % 1016.1 hPa 0.0 l/m 23.7 km/h (4 Bft) W-NW 0.00 h 0 W/m -1.1 C -2.0 C
22.01.2005 06:00 2.9 C 79 % 1016.7 hPa 0.0 l/m 16.0 km/h (3 Bft) W-NW 0.00 h 0 W/m -0.4 C -0.7 C
22.01.2005 07:00 2.3 C 83 % 1017.2 hPa 0.0 l/m 7.1 km/h (2 Bft) W-NW 0.00 h 0 W/m -0.2 C 0.4 C
22.01.2005 08:00 1.4 C 89 % 1017.3 hPa 0.0 l/m 4.0 km/h (1 Bft) O-SO 0.00 h 32 W/m -0.3 C 0.5 C
22.01.2005 09:00 2.1 C 89 % 1017.8 hPa 0.0 l/m 6.8 km/h (2 Bft) O-SO 0.13 h 100 W/m 0.5 C 0.3 C
22.01.2005 10:00 3.4 C 73 % 1018.1 hPa 0.0 l/m 7.8 km/h (2 Bft) W 0.50 h 237 W/m -1.1 C 1.6 C
22.01.2005 11:00 4.2 C 62 % 1018.6 hPa 0.0 l/m 18.8 km/h (3 Bft) W 0.50 h 317 W/m -2.4 C 0.2 C
22.01.2005 12:00 5.0 C 56 % 1018.9 hPa 0.0 l/m 19.3 km/h (3 Bft) W 1.00 h 504 W/m -3.1 C 1.1 C
22.01.2005 13:00 5.5 C 51 % 1018.8 hPa 0.0 l/m 17.9 km/h (3 Bft) W-NW 1.00 h 455 W/m -3.8 C 2.0 C
22.01.2005 14:00 5.5 C 49 % 1018.8 hPa 0.0 l/m 17.9 km/h (3 Bft) W-NW 1.00 h 339 W/m -4.3 C 2.0 C
22.01.2005 15:00 5.3 C 48 % 1018.9 hPa 0.0 l/m 13.7 km/h (3 Bft) W-NW 1.00 h 277 W/m -4.9 C 2.4 C
22.01.2005 16:00 4.4 C 49 % 1019.0 hPa 0.0 l/m 11.1 km/h (2 Bft) W-NW 1.00 h 118 W/m -5.5 C 1.9 C
22.01.2005 17:00 1.5 C 59 % 1020.4 hPa 0.0 l/m 1.2 km/h (1 Bft) S-SO 0.03 h 14 W/m -5.6 C 1.2 C
22.01.2005 18:00 -0.1 C 68 % 1020.7 hPa 0.0 l/m 5.0 km/h (1 Bft) O-SO 0.00 h 0 W/m -5.2 C -1.4 C
22.01.2005 19:00 -1.5 C 78 % 1021.2 hPa 0.0 l/m 5.3 km/h (1 Bft) O-SO 0.00 h 0 W/m -4.8 C -3.3 C
22.01.2005 20:00 -2.3 C 82 % 1021.2 hPa 0.0 l/m 3.0 km/h (1 Bft) O 0.00 h 0 W/m -4.9 C -3.3 C
22.01.2005 21:00 -3.1 C 88 % 1021.2 hPa 0.0 l/m 1.0 km/h (0 Bft) O 0.00 h 0 W/m -4.7 C -3.1 C
22.01.2005 22:00 -3.0 C 88 % 1021.1 hPa 0.0 l/m 2.2 km/h (1 Bft) O-SO 0.00 h 0 W/m -4.7 C -3.6 C
22.01.2005 23:00 -3.5 C 89 % 1021.2 hPa 0.0 l/m 0.0 km/h (0 Bft) N 0.00 h 0 W/m -4.9 C -3.5 C
23.01.2005 00:00 -3.6 C 91 % 1020.3 hPa 0.0 l/m 0.0 km/h (0 Bft) N 0.00 h 0 W/m -4.9 C -3.6 C
23.01.2005 01:00 -3.2 C 90 % 1020.2 hPa 0.0 l/m 0.0 km/h (0 Bft) N 0.00 h 0 W/m -4.7 C -3.2 C
23.01.2005 02:00 -2.9 C 88 % 1020.1 hPa 0.0 l/m 0.3 km/h (0 Bft) O-SO 0.00 h 0 W/m -4.6 C -2.9 C
23.01.2005 03:00 -2.7 C 88 % 1019.0 hPa 0.0 l/m 0.0 km/h (0 Bft) N 0.00 h 0 W/m -4.5 C -2.7 C
23.01.2005 04:00 -2.6 C 88 % 1019.0 hPa 0.0 l/m 0.0 km/h (0 Bft) N 0.00 h 0 W/m -4.3 C -2.6 C
23.01.2005 05:00 -2.2 C 89 % 1018.1 hPa 0.0 l/m 0.0 km/h (0 Bft) N 0.00 h 0 W/m -3.8 C -2.2 C
23.01.2005 06:00 -2.2 C 90 % 1017.9 hPa 0.0 l/m 0.0 km/h (0 Bft) N 0.00 h 0 W/m -3.6 C -2.2 C
23.01.2005 07:00 -2.0 C 90 % 1017.8 hPa 0.0 l/m 0.0 km/h (0 Bft) N 0.00 h 0 W/m -3.4 C -2.0 C
23.01.2005 08:00 -1.8 C 90 % 1017.9 hPa 0.0 l/m 0.9 km/h (0 Bft) SO 0.00 h 6 W/m -3.2 C -1.9 C
23.01.2005 09:00 -1.0 C 86 % 1018.7 hPa 0.0 l/m 1.8 km/h (1 Bft) O-SO 0.00 h 30 W/m -3.0 C -1.5 C
23.01.2005 10:00 -0.1 C 79 % 1019.0 hPa 0.0 l/m 0.3 km/h (0 Bft) S-SO 0.00 h 112 W/m -3.3 C -0.1 C
23.01.2005 11:00 1.0 C 74 % 1019.5 hPa 0.0 l/m 0.0 km/h (0 Bft) N 0.00 h 188 W/m -3.0 C 1.0 C
23.01.2005 12:00 2.2 C 69 % 1019.1 hPa 0.0 l/m 1.9 km/h (1 Bft) NO 0.68 h 320 W/m -3.0 C 1.8 C
23.01.2005 13:00 2.9 C 60 % 1018.2 hPa 0.0 l/m 2.4 km/h (1 Bft) O 0.98 h 367 W/m -4.0 C 2.4 C
23.01.2005 14:00 3.8 C 55 % 1018.0 hPa 0.0 l/m 4.5 km/h (1 Bft) N-NO 0.77 h 316 W/m -4.4 C 2.8 C
23.01.2005 15:00 3.4 C 51 % 1018.1 hPa 0.0 l/m 0.8 km/h (0 Bft) NO 0.38 h 125 W/m -5.9 C 3.4 C
23.01.2005 16:00 2.5 C 53 % 1018.2 hPa 0.0 l/m 2.9 km/h (1 Bft) O-SO 0.78 h 85 W/m -6.2 C 1.8 C
23.01.2005 17:00 0.0 C 62 % 1019.5 hPa 0.0 l/m 2.2 km/h (1 Bft) O 0.07 h 13 W/m -6.3 C -0.5 C
23.01.2005 18:00 -1.9 C 74 % 1019.9 hPa 0.0 l/m 2.6 km/h (1 Bft) O 0.00 h 0 W/m -5.9 C -2.4 C
23.01.2005 19:00 -2.4 C 82 % 1020.0 hPa 0.0 l/m 1.2 km/h (1 Bft) O-SO 0.00 h 0 W/m -5.0 C -2.8 C
23.01.2005 20:00 -1.7 C 81 % 1019.9 hPa 0.0 l/m 1.3 km/h (1 Bft) O 0.00 h 0 W/m -4.6 C -2.2 C
23.01.2005 21:00 -1.5 C 83 % 1019.8 hPa 0.0 l/m 0.7 km/h (0 Bft) O-SO 0.00 h 0 W/m -4.0 C -1.7 C
23.01.2005 22:00 -1.8 C 85 % 1019.6 hPa 0.0 l/m 0.4 km/h (0 Bft) O-SO 0.00 h 0 W/m -3.9 C -1.8 C
23.01.2005 23:00 -1.3 C 84 % 1018.8 hPa 0.0 l/m 1.8 km/h (1 Bft) O-SO 0.00 h 0 W/m -3.6 C -1.7 C
Min-Datum _ 22.01.05 22.01.05 18.01.05 - 17.01.05 - - - 23.01.05 17.01.05
_ Min-Zeit 23:53 15:52 15:00 - 00:20 - - - 15:52 04:12
Minimum _ -3.9 C 45 % 999.2 hPa - 0.0 km/h (0 Bft) - - - -6.6 C -7.8 C
Max-Datum _ 21.01.05 18.01.05 17.01.05 18.01.05 21.01.05 - 22.01.05 22.01.05 21.01.05 20.01.05
_ Max-Zeit 02:04 11:46 00:00 14:36 08:12 - 13:24 12:08 09:08 19:29
Maximum _ 8.9 C 99 % 1030.4 hPa 2.1 l/m 72.2 km/h
W-NW (8 Bft)
- 0.05 h 542 W/m 6.7 C 7.1 C
Durchschnitt _ 1.6 C 84 % 1016.9 hPa #19.2 l/m 11.5 km/h (2 Bft) W-NW #13:50 h 104 W/m -1.0 C -0.5 C

Durchschnitt Minimum Temp.1.3 C
Durchschnitt Maximum Temp.1.9 C
© Kaiko 2005